sensor_id;sensor_type;location;lat;lon;timestamp;P1;durP1;ratioP1;P2;durP2;ratioP2
19221;SDS011;9745;50.828;4.378;2023-08-06T00:01:58;3.83;;;1.73;;
19221;SDS011;9745;50.828;4.378;2023-08-06T00:04:24;4.97;;;2.60;;
19221;SDS011;9745;50.828;4.378;2023-08-06T00:06:50;8.17;;;2.33;;
19221;SDS011;9745;50.828;4.378;2023-08-06T00:09:16;9.97;;;2.60;;
19221;SDS011;9745;50.828;4.378;2023-08-06T00:11:42;4.20;;;2.60;;
19221;SDS011;9745;50.828;4.378;2023-08-06T00:14:09;4.87;;;2.43;;
19221;SDS011;9745;50.828;4.378;2023-08-06T00:16:35;4.23;;;2.57;;
19221;SDS011;9745;50.828;4.378;2023-08-06T00:19:01;9.77;;;2.40;;
19221;SDS011;9745;50.828;4.378;2023-08-06T00:21:27;8.10;;;3.50;;
19221;SDS011;9745;50.828;4.378;2023-08-06T00:23:53;8.83;;;4.60;;
19221;SDS011;9745;50.828;4.378;2023-08-06T00:26:19;7.30;;;3.10;;
19221;SDS011;9745;50.828;4.378;2023-08-06T00:28:45;8.90;;;3.10;;
19221;SDS011;9745;50.828;4.378;2023-08-06T00:31:11;7.43;;;2.60;;
19221;SDS011;9745;50.828;4.378;2023-08-06T00:33:37;8.67;;;3.30;;
19221;SDS011;9745;50.828;4.378;2023-08-06T00:36:04;8.97;;;3.30;;
19221;SDS011;9745;50.828;4.378;2023-08-06T00:38:30;7.33;;;3.70;;
19221;SDS011;9745;50.828;4.378;2023-08-06T00:40:56;7.07;;;3.53;;
19221;SDS011;9745;50.828;4.378;2023-08-06T00:43:22;8.43;;;4.03;;
19221;SDS011;9745;50.828;4.378;2023-08-06T00:45:48;7.47;;;3.87;;
19221;SDS011;9745;50.828;4.378;2023-08-06T00:48:14;7.67;;;4.00;;
19221;SDS011;9745;50.828;4.378;2023-08-06T00:50:41;13.23;;;5.10;;
19221;SDS011;9745;50.828;4.378;2023-08-06T00:53:07;12.73;;;5.10;;
19221;SDS011;9745;50.828;4.378;2023-08-06T00:55:33;9.73;;;4.70;;
19221;SDS011;9745;50.828;4.378;2023-08-06T00:57:59;11.67;;;5.10;;
19221;SDS011;9745;50.828;4.378;2023-08-06T01:00:25;8.50;;;4.30;;
19221;SDS011;9745;50.828;4.378;2023-08-06T01:02:51;10.17;;;4.30;;
19221;SDS011;9745;50.828;4.378;2023-08-06T01:05:17;9.13;;;4.47;;
19221;SDS011;9745;50.828;4.378;2023-08-06T01:15:58;10.10;;;6.13;;
19221;SDS011;9745;50.828;4.378;2023-08-06T01:18:25;12.90;;;6.40;;
19221;SDS011;9745;50.828;4.378;2023-08-06T01:20:51;10.17;;;5.87;;
19221;SDS011;9745;50.828;4.378;2023-08-06T01:23:17;12.57;;;6.00;;
19221;SDS011;9745;50.828;4.378;2023-08-06T01:25:58;14.27;;;6.67;;
19221;SDS011;9745;50.828;4.378;2023-08-06T01:28:28;15.30;;;6.60;;
19221;SDS011;9745;50.828;4.378;2023-08-06T01:30:56;13.10;;;6.57;;
19221;SDS011;9745;50.828;4.378;2023-08-06T01:33:25;12.83;;;6.23;;
19221;SDS011;9745;50.828;4.378;2023-08-06T01:35:52;12.10;;;6.77;;
19221;SDS011;9745;50.828;4.378;2023-08-06T01:38:19;10.57;;;6.73;;
19221;SDS011;9745;50.828;4.378;2023-08-06T01:40:45;15.37;;;6.20;;
19221;SDS011;9745;50.828;4.378;2023-08-06T01:43:11;12.63;;;6.23;;
19221;SDS011;9745;50.828;4.378;2023-08-06T01:45:37;13.70;;;6.63;;
19221;SDS011;9745;50.828;4.378;2023-08-06T01:48:03;13.83;;;6.57;;
19221;SDS011;9745;50.828;4.378;2023-08-06T01:50:29;17.87;;;6.13;;
19221;SDS011;9745;50.828;4.378;2023-08-06T01:52:56;13.07;;;6.27;;
19221;SDS011;9745;50.828;4.378;2023-08-06T01:55:22;10.17;;;5.23;;
19221;SDS011;9745;50.828;4.378;2023-08-06T01:57:47;13.70;;;5.20;;
19221;SDS011;9745;50.828;4.378;2023-08-06T02:00:14;8.93;;;5.27;;
19221;SDS011;9745;50.828;4.378;2023-08-06T02:02:40;9.53;;;4.67;;
19221;SDS011;9745;50.828;4.378;2023-08-06T02:05:06;10.30;;;4.33;;
19221;SDS011;9745;50.828;4.378;2023-08-06T02:07:32;9.13;;;4.47;;
19221;SDS011;9745;50.828;4.378;2023-08-06T02:09:58;13.80;;;4.43;;
19221;SDS011;9745;50.828;4.378;2023-08-06T02:12:24;8.40;;;3.23;;
19221;SDS011;9745;50.828;4.378;2023-08-06T02:14:50;9.40;;;3.53;;
19221;SDS011;9745;50.828;4.378;2023-08-06T02:17:16;14.97;;;3.33;;
19221;SDS011;9745;50.828;4.378;2023-08-06T02:19:42;5.57;;;2.20;;
19221;SDS011;9745;50.828;4.378;2023-08-06T02:22:08;11.97;;;2.73;;
19221;SDS011;9745;50.828;4.378;2023-08-06T02:24:34;5.83;;;2.30;;
19221;SDS011;9745;50.828;4.378;2023-08-06T02:27:00;6.47;;;2.40;;
19221;SDS011;9745;50.828;4.378;2023-08-06T02:29:26;14.67;;;2.57;;
19221;SDS011;9745;50.828;4.378;2023-08-06T02:31:52;8.37;;;2.10;;
19221;SDS011;9745;50.828;4.378;2023-08-06T02:34:18;8.53;;;2.47;;
19221;SDS011;9745;50.828;4.378;2023-08-06T02:36:44;3.70;;;2.30;;
19221;SDS011;9745;50.828;4.378;2023-08-06T02:39:10;7.20;;;2.40;;
19221;SDS011;9745;50.828;4.378;2023-08-06T02:41:36;4.07;;;2.00;;
19221;SDS011;9745;50.828;4.378;2023-08-06T02:44:02;9.77;;;2.07;;
19221;SDS011;9745;50.828;4.378;2023-08-06T02:46:28;8.50;;;2.03;;
19221;SDS011;9745;50.828;4.378;2023-08-06T02:48:54;10.20;;;2.50;;
19221;SDS011;9745;50.828;4.378;2023-08-06T02:51:20;7.13;;;2.00;;
19221;SDS011;9745;50.828;4.378;2023-08-06T02:53:47;5.53;;;2.10;;
19221;SDS011;9745;50.828;4.378;2023-08-06T02:56:14;6.57;;;2.10;;
19221;SDS011;9745;50.828;4.378;2023-08-06T02:58:40;4.70;;;2.00;;
19221;SDS011;9745;50.828;4.378;2023-08-06T03:01:06;6.97;;;2.27;;
19221;SDS011;9745;50.828;4.378;2023-08-06T03:03:33;8.37;;;2.70;;
19221;SDS011;9745;50.828;4.378;2023-08-06T03:05:59;7.57;;;2.37;;
19221;SDS011;9745;50.828;4.378;2023-08-06T03:08:25;5.70;;;2.50;;
19221;SDS011;9745;50.828;4.378;2023-08-06T03:10:51;9.47;;;2.67;;
19221;SDS011;9745;50.828;4.378;2023-08-06T03:13:18;10.60;;;3.40;;
19221;SDS011;9745;50.828;4.378;2023-08-06T03:15:57;9.77;;;3.23;;
19221;SDS011;9745;50.828;4.378;2023-08-06T03:18:23;15.23;;;3.50;;
19221;SDS011;9745;50.828;4.378;2023-08-06T03:20:50;7.73;;;4.80;;
19221;SDS011;9745;50.828;4.378;2023-08-06T03:23:16;8.70;;;4.03;;
19221;SDS011;9745;50.828;4.378;2023-08-06T03:25:42;12.97;;;5.27;;
19221;SDS011;9745;50.828;4.378;2023-08-06T03:28:09;12.37;;;6.83;;
19221;SDS011;9745;50.828;4.378;2023-08-06T03:30:35;12.40;;;7.00;;
19221;SDS011;9745;50.828;4.378;2023-08-06T03:33:01;14.03;;;8.27;;
19221;SDS011;9745;50.828;4.378;2023-08-06T03:35:27;14.50;;;8.13;;
19221;SDS011;9745;50.828;4.378;2023-08-06T03:37:53;22.83;;;9.17;;
19221;SDS011;9745;50.828;4.378;2023-08-06T03:40:19;15.83;;;8.93;;
19221;SDS011;9745;50.828;4.378;2023-08-06T03:42:45;13.13;;;8.30;;
19221;SDS011;9745;50.828;4.378;2023-08-06T03:45:11;19.67;;;8.47;;
19221;SDS011;9745;50.828;4.378;2023-08-06T03:47:37;15.47;;;6.90;;
19221;SDS011;9745;50.828;4.378;2023-08-06T03:50:03;8.97;;;6.43;;
19221;SDS011;9745;50.828;4.378;2023-08-06T03:52:29;13.47;;;5.97;;
19221;SDS011;9745;50.828;4.378;2023-08-06T03:54:55;10.40;;;5.07;;
19221;SDS011;9745;50.828;4.378;2023-08-06T03:57:21;4.33;;;2.93;;
19221;SDS011;9745;50.828;4.378;2023-08-06T03:59:47;11.90;;;3.00;;
19221;SDS011;9745;50.828;4.378;2023-08-06T04:02:14;14.87;;;2.33;;
19221;SDS011;9745;50.828;4.378;2023-08-06T04:04:40;4.27;;;2.00;;
19221;SDS011;9745;50.828;4.378;2023-08-06T04:07:06;2.13;;;1.23;;
19221;SDS011;9745;50.828;4.378;2023-08-06T04:09:32;1.60;;;0.90;;
19221;SDS011;9745;50.828;4.378;2023-08-06T04:11:58;3.07;;;1.10;;
19221;SDS011;9745;50.828;4.378;2023-08-06T04:14:26;2.50;;;0.90;;
19221;SDS011;9745;50.828;4.378;2023-08-06T04:16:52;2.93;;;0.80;;
19221;SDS011;9745;50.828;4.378;2023-08-06T04:19:18;4.00;;;1.00;;
19221;SDS011;9745;50.828;4.378;2023-08-06T04:21:44;1.77;;;0.90;;
19221;SDS011;9745;50.828;4.378;2023-08-06T04:24:10;2.37;;;1.20;;
19221;SDS011;9745;50.828;4.378;2023-08-06T04:26:36;3.10;;;1.33;;
19221;SDS011;9745;50.828;4.378;2023-08-06T04:29:02;1.90;;;1.20;;
19221;SDS011;9745;50.828;4.378;2023-08-06T04:31:29;3.43;;;1.23;;
19221;SDS011;9745;50.828;4.378;2023-08-06T04:33:55;1.97;;;1.60;;
19221;SDS011;9745;50.828;4.378;2023-08-06T04:36:21;3.00;;;1.50;;
19221;SDS011;9745;50.828;4.378;2023-08-06T04:38:47;3.23;;;2.10;;
19221;SDS011;9745;50.828;4.378;2023-08-06T04:41:13;4.57;;;2.30;;
19221;SDS011;9745;50.828;4.378;2023-08-06T04:43:39;6.97;;;2.07;;
19221;SDS011;9745;50.828;4.378;2023-08-06T04:46:06;3.20;;;2.63;;
19221;SDS011;9745;50.828;4.378;2023-08-06T04:48:32;4.83;;;2.60;;
19221;SDS011;9745;50.828;4.378;2023-08-06T04:50:58;6.63;;;2.60;;
19221;SDS011;9745;50.828;4.378;2023-08-06T04:53:24;7.07;;;3.20;;
19221;SDS011;9745;50.828;4.378;2023-08-06T04:55:50;4.57;;;2.60;;
19221;SDS011;9745;50.828;4.378;2023-08-06T04:58:16;4.17;;;3.00;;
19221;SDS011;9745;50.828;4.378;2023-08-06T05:00:42;5.50;;;3.20;;
19221;SDS011;9745;50.828;4.378;2023-08-06T05:03:08;14.20;;;3.87;;
19221;SDS011;9745;50.828;4.378;2023-08-06T05:05:34;7.00;;;4.17;;
19221;SDS011;9745;50.828;4.378;2023-08-06T05:08:00;10.27;;;3.37;;
19221;SDS011;9745;50.828;4.378;2023-08-06T05:10:26;7.57;;;3.67;;
19221;SDS011;9745;50.828;4.378;2023-08-06T05:12:52;4.93;;;3.30;;
19221;SDS011;9745;50.828;4.378;2023-08-06T05:15:18;8.17;;;4.00;;
19221;SDS011;9745;50.828;4.378;2023-08-06T05:17:45;8.80;;;3.53;;
19221;SDS011;9745;50.828;4.378;2023-08-06T05:20:11;6.63;;;3.40;;
19221;SDS011;9745;50.828;4.378;2023-08-06T05:22:37;7.00;;;3.57;;
19221;SDS011;9745;50.828;4.378;2023-08-06T05:25:03;8.17;;;3.60;;
19221;SDS011;9745;50.828;4.378;2023-08-06T05:27:29;11.40;;;4.10;;
19221;SDS011;9745;50.828;4.378;2023-08-06T05:29:55;6.73;;;4.10;;
19221;SDS011;9745;50.828;4.378;2023-08-06T05:32:21;14.50;;;4.10;;
19221;SDS011;9745;50.828;4.378;2023-08-06T05:34:48;10.87;;;3.83;;
19221;SDS011;9745;50.828;4.378;2023-08-06T05:37:14;10.17;;;3.67;;
19221;SDS011;9745;50.828;4.378;2023-08-06T05:39:40;18.17;;;4.30;;
19221;SDS011;9745;50.828;4.378;2023-08-06T05:42:06;12.23;;;3.70;;
19221;SDS011;9745;50.828;4.378;2023-08-06T05:44:32;7.93;;;3.93;;
19221;SDS011;9745;50.828;4.378;2023-08-06T05:46:58;8.90;;;3.50;;
19221;SDS011;9745;50.828;4.378;2023-08-06T05:49:23;10.10;;;3.23;;
19221;SDS011;9745;50.828;4.378;2023-08-06T05:51:49;14.30;;;4.10;;
19221;SDS011;9745;50.828;4.378;2023-08-06T05:54:18;9.77;;;4.77;;
19221;SDS011;9745;50.828;4.378;2023-08-06T05:56:44;18.33;;;4.70;;
19221;SDS011;9745;50.828;4.378;2023-08-06T05:59:10;9.17;;;4.27;;
19221;SDS011;9745;50.828;4.378;2023-08-06T06:01:36;13.53;;;4.50;;
19221;SDS011;9745;50.828;4.378;2023-08-06T06:04:02;9.07;;;4.37;;
19221;SDS011;9745;50.828;4.378;2023-08-06T06:06:28;17.27;;;4.97;;
19221;SDS011;9745;50.828;4.378;2023-08-06T06:08:54;7.33;;;3.93;;
19221;SDS011;9745;50.828;4.378;2023-08-06T06:11:20;14.53;;;4.63;;
19221;SDS011;9745;50.828;4.378;2023-08-06T06:13:47;16.40;;;4.63;;
19221;SDS011;9745;50.828;4.378;2023-08-06T06:16:13;15.43;;;4.37;;
19221;SDS011;9745;50.828;4.378;2023-08-06T06:18:39;15.47;;;4.20;;
19221;SDS011;9745;50.828;4.378;2023-08-06T06:21:05;12.40;;;3.70;;
19221;SDS011;9745;50.828;4.378;2023-08-06T06:23:31;11.17;;;4.07;;
19221;SDS011;9745;50.828;4.378;2023-08-06T06:25:57;10.60;;;3.73;;
19221;SDS011;9745;50.828;4.378;2023-08-06T06:28:23;9.50;;;3.33;;
19221;SDS011;9745;50.828;4.378;2023-08-06T06:30:50;10.03;;;4.63;;
19221;SDS011;9745;50.828;4.378;2023-08-06T06:33:17;10.63;;;3.70;;
19221;SDS011;9745;50.828;4.378;2023-08-06T06:35:43;13.17;;;3.80;;
19221;SDS011;9745;50.828;4.378;2023-08-06T06:38:09;9.13;;;3.40;;
19221;SDS011;9745;50.828;4.378;2023-08-06T06:40:35;7.67;;;3.03;;
19221;SDS011;9745;50.828;4.378;2023-08-06T06:43:01;7.27;;;3.10;;
19221;SDS011;9745;50.828;4.378;2023-08-06T06:45:27;8.37;;;2.80;;
19221;SDS011;9745;50.828;4.378;2023-08-06T06:47:53;10.57;;;3.33;;
19221;SDS011;9745;50.828;4.378;2023-08-06T06:50:19;6.43;;;3.37;;
19221;SDS011;9745;50.828;4.378;2023-08-06T06:52:45;12.03;;;3.53;;
19221;SDS011;9745;50.828;4.378;2023-08-06T06:55:11;8.50;;;3.53;;
19221;SDS011;9745;50.828;4.378;2023-08-06T06:57:37;8.83;;;3.03;;
19221;SDS011;9745;50.828;4.378;2023-08-06T07:00:03;9.20;;;3.47;;
19221;SDS011;9745;50.828;4.378;2023-08-06T07:02:29;15.80;;;3.80;;
19221;SDS011;9745;50.828;4.378;2023-08-06T07:04:55;12.60;;;5.23;;
19221;SDS011;9745;50.828;4.378;2023-08-06T07:07:21;31.93;;;14.23;;
19221;SDS011;9745;50.828;4.378;2023-08-06T07:09:47;20.47;;;8.10;;
19221;SDS011;9745;50.828;4.378;2023-08-06T07:12:13;23.87;;;11.17;;
19221;SDS011;9745;50.828;4.378;2023-08-06T07:14:39;16.43;;;6.17;;
19221;SDS011;9745;50.828;4.378;2023-08-06T07:17:05;15.37;;;6.60;;
19221;SDS011;9745;50.828;4.378;2023-08-06T07:19:31;21.03;;;7.93;;
19221;SDS011;9745;50.828;4.378;2023-08-06T07:21:57;24.90;;;9.37;;
19221;SDS011;9745;50.828;4.378;2023-08-06T07:24:23;13.30;;;3.90;;
19221;SDS011;9745;50.828;4.378;2023-08-06T07:34:07;16.07;;;4.50;;
19221;SDS011;9745;50.828;4.378;2023-08-06T07:36:33;12.03;;;4.70;;
19221;SDS011;9745;50.828;4.378;2023-08-06T07:38:59;21.00;;;7.13;;
19221;SDS011;9745;50.828;4.378;2023-08-06T07:41:25;14.83;;;5.60;;
19221;SDS011;9745;50.828;4.378;2023-08-06T07:43:51;10.83;;;2.10;;
19221;SDS011;9745;50.828;4.378;2023-08-06T07:46:17;9.70;;;1.93;;
19221;SDS011;9745;50.828;4.378;2023-08-06T07:48:43;5.90;;;1.50;;
19221;SDS011;9745;50.828;4.378;2023-08-06T07:51:09;10.57;;;2.70;;
19221;SDS011;9745;50.828;4.378;2023-08-06T07:53:35;6.17;;;1.50;;
19221;SDS011;9745;50.828;4.378;2023-08-06T07:56:01;5.57;;;1.17;;
19221;SDS011;9745;50.828;4.378;2023-08-06T07:58:28;12.13;;;1.70;;
19221;SDS011;9745;50.828;4.378;2023-08-06T08:00:54;8.67;;;1.57;;
19221;SDS011;9745;50.828;4.378;2023-08-06T08:03:20;9.40;;;1.63;;
19221;SDS011;9745;50.828;4.378;2023-08-06T08:05:47;9.80;;;2.40;;
19221;SDS011;9745;50.828;4.378;2023-08-06T08:08:13;9.10;;;1.63;;
19221;SDS011;9745;50.828;4.378;2023-08-06T08:10:39;7.13;;;1.97;;
19221;SDS011;9745;50.828;4.378;2023-08-06T08:13:05;8.43;;;1.67;;
19221;SDS011;9745;50.828;4.378;2023-08-06T08:15:31;7.63;;;1.80;;
19221;SDS011;9745;50.828;4.378;2023-08-06T08:17:57;7.30;;;1.73;;
19221;SDS011;9745;50.828;4.378;2023-08-06T08:20:23;7.53;;;1.70;;
19221;SDS011;9745;50.828;4.378;2023-08-06T08:22:50;6.97;;;2.30;;
19221;SDS011;9745;50.828;4.378;2023-08-06T08:25:16;9.00;;;1.43;;
19221;SDS011;9745;50.828;4.378;2023-08-06T08:27:42;8.50;;;1.80;;
19221;SDS011;9745;50.828;4.378;2023-08-06T08:30:08;8.27;;;1.70;;
19221;SDS011;9745;50.828;4.378;2023-08-06T08:32:34;7.23;;;2.10;;
19221;SDS011;9745;50.828;4.378;2023-08-06T08:35:00;9.63;;;2.27;;
19221;SDS011;9745;50.828;4.378;2023-08-06T08:37:26;6.73;;;2.03;;
19221;SDS011;9745;50.828;4.378;2023-08-06T08:39:52;7.97;;;2.03;;
19221;SDS011;9745;50.828;4.378;2023-08-06T08:42:18;8.47;;;2.00;;
19221;SDS011;9745;50.828;4.378;2023-08-06T08:44:45;12.00;;;2.17;;
19221;SDS011;9745;50.828;4.378;2023-08-06T08:47:11;7.93;;;2.97;;
19221;SDS011;9745;50.828;4.378;2023-08-06T08:49:37;10.33;;;2.10;;
19221;SDS011;9745;50.828;4.378;2023-08-06T08:52:03;8.53;;;2.17;;
19221;SDS011;9745;50.828;4.378;2023-08-06T08:54:35;7.57;;;1.57;;
19221;SDS011;9745;50.828;4.378;2023-08-06T08:57:03;7.53;;;1.70;;
19221;SDS011;9745;50.828;4.378;2023-08-06T08:59:29;6.13;;;2.20;;
19221;SDS011;9745;50.828;4.378;2023-08-06T09:01:55;7.60;;;2.00;;
19221;SDS011;9745;50.828;4.378;2023-08-06T09:04:22;6.77;;;2.10;;
19221;SDS011;9745;50.828;4.378;2023-08-06T09:06:50;7.40;;;2.43;;
19221;SDS011;9745;50.828;4.378;2023-08-06T09:09:25;4.83;;;1.97;;
19221;SDS011;9745;50.828;4.378;2023-08-06T09:11:52;7.27;;;1.90;;
19221;SDS011;9745;50.828;4.378;2023-08-06T09:14:18;5.77;;;1.97;;
19221;SDS011;9745;50.828;4.378;2023-08-06T09:16:44;7.93;;;1.90;;
19221;SDS011;9745;50.828;4.378;2023-08-06T09:19:10;6.17;;;1.90;;
19221;SDS011;9745;50.828;4.378;2023-08-06T09:21:45;7.60;;;1.63;;
19221;SDS011;9745;50.828;4.378;2023-08-06T09:24:14;9.07;;;1.87;;
19221;SDS011;9745;50.828;4.378;2023-08-06T09:26:41;8.73;;;1.87;;
19221;SDS011;9745;50.828;4.378;2023-08-06T09:29:08;11.17;;;2.67;;
19221;SDS011;9745;50.828;4.378;2023-08-06T09:34:10;8.60;;;2.20;;
19221;SDS011;9745;50.828;4.378;2023-08-06T09:36:41;6.23;;;1.57;;
19221;SDS011;9745;50.828;4.378;2023-08-06T09:39:12;13.13;;;3.60;;
19221;SDS011;9745;50.828;4.378;2023-08-06T09:41:39;8.93;;;1.97;;
19221;SDS011;9745;50.828;4.378;2023-08-06T09:44:05;7.53;;;1.83;;
19221;SDS011;9745;50.828;4.378;2023-08-06T09:46:32;7.97;;;2.10;;
19221;SDS011;9745;50.828;4.378;2023-08-06T09:48:58;10.60;;;1.67;;
19221;SDS011;9745;50.828;4.378;2023-08-06T09:51:24;11.30;;;1.80;;
19221;SDS011;9745;50.828;4.378;2023-08-06T09:53:51;5.50;;;1.90;;
19221;SDS011;9745;50.828;4.378;2023-08-06T09:56:17;11.30;;;2.30;;
19221;SDS011;9745;50.828;4.378;2023-08-06T09:58:44;9.53;;;2.60;;
19221;SDS011;9745;50.828;4.378;2023-08-06T10:01:10;9.63;;;1.93;;
19221;SDS011;9745;50.828;4.378;2023-08-06T10:03:37;8.40;;;1.90;;
19221;SDS011;9745;50.828;4.378;2023-08-06T10:06:03;7.53;;;1.40;;
19221;SDS011;9745;50.828;4.378;2023-08-06T10:08:32;8.20;;;1.83;;
19221;SDS011;9745;50.828;4.378;2023-08-06T10:10:58;8.27;;;1.67;;
19221;SDS011;9745;50.828;4.378;2023-08-06T10:13:24;6.90;;;1.50;;
19221;SDS011;9745;50.828;4.378;2023-08-06T10:15:50;9.43;;;2.70;;
19221;SDS011;9745;50.828;4.378;2023-08-06T10:18:17;6.37;;;1.70;;
19221;SDS011;9745;50.828;4.378;2023-08-06T10:20:46;6.13;;;2.10;;
19221;SDS011;9745;50.828;4.378;2023-08-06T10:23:12;12.40;;;2.27;;
19221;SDS011;9745;50.828;4.378;2023-08-06T10:25:42;7.73;;;1.70;;
19221;SDS011;9745;50.828;4.378;2023-08-06T10:28:09;6.47;;;2.07;;
19221;SDS011;9745;50.828;4.378;2023-08-06T10:30:41;7.37;;;1.47;;
19221;SDS011;9745;50.828;4.378;2023-08-06T10:33:07;5.97;;;1.83;;
19221;SDS011;9745;50.828;4.378;2023-08-06T10:35:46;9.03;;;2.07;;
19221;SDS011;9745;50.828;4.378;2023-08-06T10:38:14;5.10;;;1.57;;
19221;SDS011;9745;50.828;4.378;2023-08-06T10:40:42;7.90;;;2.63;;
19221;SDS011;9745;50.828;4.378;2023-08-06T10:43:08;11.13;;;2.23;;
19221;SDS011;9745;50.828;4.378;2023-08-06T10:45:50;6.83;;;1.67;;
19221;SDS011;9745;50.828;4.378;2023-08-06T10:48:28;6.83;;;1.97;;
19221;SDS011;9745;50.828;4.378;2023-08-06T10:50:54;6.60;;;2.27;;
19221;SDS011;9745;50.828;4.378;2023-08-06T10:53:20;6.63;;;2.47;;
19221;SDS011;9745;50.828;4.378;2023-08-06T10:55:47;8.87;;;2.17;;
19221;SDS011;9745;50.828;4.378;2023-08-06T10:58:14;7.97;;;2.30;;
19221;SDS011;9745;50.828;4.378;2023-08-06T11:00:44;9.73;;;2.23;;
19221;SDS011;9745;50.828;4.378;2023-08-06T11:03:10;10.73;;;2.43;;
19221;SDS011;9745;50.828;4.378;2023-08-06T11:05:36;6.03;;;2.33;;
19221;SDS011;9745;50.828;4.378;2023-08-06T11:08:02;15.27;;;2.83;;
19221;SDS011;9745;50.828;4.378;2023-08-06T11:10:28;8.77;;;2.60;;
19221;SDS011;9745;50.828;4.378;2023-08-06T11:12:54;12.00;;;2.40;;
19221;SDS011;9745;50.828;4.378;2023-08-06T11:15:20;9.00;;;2.50;;
19221;SDS011;9745;50.828;4.378;2023-08-06T11:17:46;7.37;;;2.77;;
19221;SDS011;9745;50.828;4.378;2023-08-06T11:20:14;11.17;;;2.30;;
19221;SDS011;9745;50.828;4.378;2023-08-06T11:22:40;7.20;;;2.23;;
19221;SDS011;9745;50.828;4.378;2023-08-06T11:25:07;6.90;;;3.10;;
19221;SDS011;9745;50.828;4.378;2023-08-06T11:27:33;6.93;;;3.07;;
19221;SDS011;9745;50.828;4.378;2023-08-06T11:29:59;10.70;;;2.23;;
19221;SDS011;9745;50.828;4.378;2023-08-06T11:32:25;4.87;;;1.87;;
19221;SDS011;9745;50.828;4.378;2023-08-06T11:34:52;7.73;;;2.27;;
19221;SDS011;9745;50.828;4.378;2023-08-06T11:37:22;8.30;;;2.20;;
19221;SDS011;9745;50.828;4.378;2023-08-06T11:39:51;7.17;;;1.73;;
19221;SDS011;9745;50.828;4.378;2023-08-06T11:42:17;6.70;;;1.90;;
19221;SDS011;9745;50.828;4.378;2023-08-06T11:44:44;6.13;;;1.60;;
19221;SDS011;9745;50.828;4.378;2023-08-06T11:47:12;9.83;;;1.77;;
19221;SDS011;9745;50.828;4.378;2023-08-06T11:49:41;4.90;;;1.70;;
19221;SDS011;9745;50.828;4.378;2023-08-06T11:54:41;5.70;;;1.57;;
19221;SDS011;9745;50.828;4.378;2023-08-06T11:57:07;4.73;;;1.77;;
19221;SDS011;9745;50.828;4.378;2023-08-06T11:59:33;4.13;;;1.50;;
19221;SDS011;9745;50.828;4.378;2023-08-06T12:02:03;6.57;;;1.73;;
19221;SDS011;9745;50.828;4.378;2023-08-06T12:04:50;6.53;;;1.83;;
19221;SDS011;9745;50.828;4.378;2023-08-06T12:07:16;5.10;;;1.43;;
19221;SDS011;9745;50.828;4.378;2023-08-06T12:09:42;7.80;;;2.57;;
19221;SDS011;9745;50.828;4.378;2023-08-06T12:12:09;6.47;;;1.60;;
19221;SDS011;9745;50.828;4.378;2023-08-06T12:14:36;6.73;;;1.93;;
19221;SDS011;9745;50.828;4.378;2023-08-06T12:17:02;4.83;;;1.83;;
19221;SDS011;9745;50.828;4.378;2023-08-06T12:19:28;8.97;;;2.00;;
19221;SDS011;9745;50.828;4.378;2023-08-06T12:21:55;6.87;;;2.10;;
19221;SDS011;9745;50.828;4.378;2023-08-06T12:24:21;5.60;;;1.73;;
19221;SDS011;9745;50.828;4.378;2023-08-06T12:26:47;6.00;;;2.17;;
19221;SDS011;9745;50.828;4.378;2023-08-06T12:29:13;11.50;;;2.47;;
19221;SDS011;9745;50.828;4.378;2023-08-06T12:31:39;5.70;;;2.30;;
19221;SDS011;9745;50.828;4.378;2023-08-06T12:34:05;5.33;;;1.60;;
19221;SDS011;9745;50.828;4.378;2023-08-06T12:36:31;5.63;;;1.87;;
19221;SDS011;9745;50.828;4.378;2023-08-06T12:38:57;6.53;;;1.87;;
19221;SDS011;9745;50.828;4.378;2023-08-06T12:41:23;5.80;;;1.77;;
19221;SDS011;9745;50.828;4.378;2023-08-06T12:43:49;8.23;;;2.13;;
19221;SDS011;9745;50.828;4.378;2023-08-06T12:46:15;7.53;;;1.40;;
19221;SDS011;9745;50.828;4.378;2023-08-06T12:48:41;6.00;;;1.60;;
19221;SDS011;9745;50.828;4.378;2023-08-06T12:51:08;7.23;;;1.70;;
19221;SDS011;9745;50.828;4.378;2023-08-06T12:53:34;5.10;;;1.80;;
19221;SDS011;9745;50.828;4.378;2023-08-06T12:56:00;6.00;;;1.53;;
19221;SDS011;9745;50.828;4.378;2023-08-06T12:58:26;9.27;;;2.07;;
19221;SDS011;9745;50.828;4.378;2023-08-06T13:00:52;6.07;;;2.00;;
19221;SDS011;9745;50.828;4.378;2023-08-06T13:03:19;4.40;;;1.40;;
19221;SDS011;9745;50.828;4.378;2023-08-06T13:05:45;7.10;;;1.93;;
19221;SDS011;9745;50.828;4.378;2023-08-06T13:08:11;8.53;;;2.03;;
19221;SDS011;9745;50.828;4.378;2023-08-06T13:10:37;7.33;;;2.10;;
19221;SDS011;9745;50.828;4.378;2023-08-06T13:13:04;6.73;;;1.60;;
19221;SDS011;9745;50.828;4.378;2023-08-06T13:15:30;7.30;;;2.80;;
19221;SDS011;9745;50.828;4.378;2023-08-06T13:17:56;8.00;;;1.77;;
19221;SDS011;9745;50.828;4.378;2023-08-06T13:20:22;6.30;;;1.83;;
19221;SDS011;9745;50.828;4.378;2023-08-06T13:22:48;8.63;;;2.20;;
19221;SDS011;9745;50.828;4.378;2023-08-06T13:25:18;7.80;;;2.10;;
19221;SDS011;9745;50.828;4.378;2023-08-06T13:27:44;6.63;;;2.43;;
19221;SDS011;9745;50.828;4.378;2023-08-06T13:30:11;7.60;;;1.90;;
19221;SDS011;9745;50.828;4.378;2023-08-06T13:32:37;6.13;;;1.60;;
19221;SDS011;9745;50.828;4.378;2023-08-06T13:35:06;9.53;;;1.97;;
19221;SDS011;9745;50.828;4.378;2023-08-06T13:37:32;6.13;;;1.80;;
19221;SDS011;9745;50.828;4.378;2023-08-06T13:39:58;7.83;;;2.30;;
19221;SDS011;9745;50.828;4.378;2023-08-06T13:42:24;7.10;;;1.70;;
19221;SDS011;9745;50.828;4.378;2023-08-06T13:44:50;11.83;;;2.27;;
19221;SDS011;9745;50.828;4.378;2023-08-06T13:47:16;5.40;;;1.90;;
19221;SDS011;9745;50.828;4.378;2023-08-06T13:49:42;6.43;;;1.80;;
19221;SDS011;9745;50.828;4.378;2023-08-06T13:52:08;8.97;;;2.00;;
19221;SDS011;9745;50.828;4.378;2023-08-06T13:54:34;6.53;;;1.97;;
19221;SDS011;9745;50.828;4.378;2023-08-06T13:57:00;10.77;;;2.13;;
19221;SDS011;9745;50.828;4.378;2023-08-06T13:59:26;5.47;;;2.07;;
19221;SDS011;9745;50.828;4.378;2023-08-06T14:01:52;8.70;;;2.10;;
19221;SDS011;9745;50.828;4.378;2023-08-06T14:04:18;9.33;;;1.80;;
19221;SDS011;9745;50.828;4.378;2023-08-06T14:06:46;5.83;;;1.57;;
19221;SDS011;9745;50.828;4.378;2023-08-06T14:09:12;6.53;;;1.63;;
19221;SDS011;9745;50.828;4.378;2023-08-06T14:11:43;7.17;;;1.63;;
19221;SDS011;9745;50.828;4.378;2023-08-06T14:14:09;6.43;;;1.63;;
19221;SDS011;9745;50.828;4.378;2023-08-06T14:16:35;4.77;;;1.23;;
19221;SDS011;9745;50.828;4.378;2023-08-06T14:19:01;5.03;;;1.37;;
19221;SDS011;9745;50.828;4.378;2023-08-06T14:21:27;7.37;;;1.30;;
19221;SDS011;9745;50.828;4.378;2023-08-06T14:23:53;6.87;;;2.33;;
19221;SDS011;9745;50.828;4.378;2023-08-06T14:26:19;8.10;;;1.70;;
19221;SDS011;9745;50.828;4.378;2023-08-06T14:28:45;8.40;;;2.20;;
19221;SDS011;9745;50.828;4.378;2023-08-06T14:31:11;5.33;;;1.27;;
19221;SDS011;9745;50.828;4.378;2023-08-06T14:33:37;5.03;;;2.13;;
19221;SDS011;9745;50.828;4.378;2023-08-06T14:36:03;11.23;;;2.37;;
19221;SDS011;9745;50.828;4.378;2023-08-06T14:38:30;6.50;;;1.90;;
19221;SDS011;9745;50.828;4.378;2023-08-06T14:40:56;7.20;;;2.00;;
19221;SDS011;9745;50.828;4.378;2023-08-06T14:43:22;5.97;;;1.60;;
19221;SDS011;9745;50.828;4.378;2023-08-06T14:45:48;8.83;;;1.80;;
19221;SDS011;9745;50.828;4.378;2023-08-06T14:48:14;7.97;;;1.80;;
19221;SDS011;9745;50.828;4.378;2023-08-06T14:50:40;7.50;;;1.67;;
19221;SDS011;9745;50.828;4.378;2023-08-06T14:53:06;9.87;;;2.50;;
19221;SDS011;9745;50.828;4.378;2023-08-06T14:55:33;6.83;;;2.07;;
19221;SDS011;9745;50.828;4.378;2023-08-06T14:58:00;7.10;;;2.00;;
19221;SDS011;9745;50.828;4.378;2023-08-06T15:00:26;12.37;;;2.13;;
19221;SDS011;9745;50.828;4.378;2023-08-06T15:02:52;10.30;;;2.30;;
19221;SDS011;9745;50.828;4.378;2023-08-06T15:05:18;8.10;;;2.00;;
19221;SDS011;9745;50.828;4.378;2023-08-06T15:07:45;8.07;;;2.57;;
19221;SDS011;9745;50.828;4.378;2023-08-06T15:10:11;7.57;;;2.13;;
19221;SDS011;9745;50.828;4.378;2023-08-06T15:12:37;8.43;;;1.80;;
19221;SDS011;9745;50.828;4.378;2023-08-06T15:15:04;11.60;;;2.20;;